createdAt,value
2023-02-02T00:01:41.349Z,18.95
2023-02-02T00:04:01.774Z,25.55
2023-02-02T00:06:04.184Z,18.17
2023-02-02T00:08:06.178Z,10.38
2023-02-02T00:10:08.051Z,20.00
2023-02-02T00:12:09.952Z,23.58
2023-02-02T00:14:14.610Z,23.55
2023-02-02T00:16:28.478Z,18.17
2023-02-02T00:18:32.698Z,14.70
2023-02-02T00:20:37.483Z,21.10
2023-02-02T00:22:39.047Z,17.55
2023-02-02T00:26:45.589Z,23.75
2023-02-02T00:29:06.418Z,26.98
2023-02-02T00:31:10.924Z,17.67
2023-02-02T00:33:12.383Z,25.45
2023-02-02T00:37:27.617Z,21.15
2023-02-02T00:39:44.799Z,19.73
2023-02-02T00:41:57.496Z,24.42
2023-02-02T00:44:26.163Z,15.95
2023-02-02T00:49:06.335Z,12.20
2023-02-02T00:51:20.857Z,16.30
2023-02-02T00:53:47.091Z,16.52
2023-02-02T00:56:00.790Z,16.98
2023-02-02T00:58:11.452Z,21.33
2023-02-02T01:00:27.002Z,21.15
2023-02-02T01:02:43.803Z,14.05
2023-02-02T01:04:54.960Z,18.88
2023-02-02T01:07:07.963Z,12.07
2023-02-02T01:09:14.436Z,21.63
2023-02-02T01:11:19.222Z,15.15
2023-02-02T01:13:26.547Z,16.83
2023-02-02T01:17:35.120Z,19.83
2023-02-02T01:19:39.694Z,15.75
2023-02-02T01:21:41.363Z,25.50
2023-02-02T01:23:42.823Z,20.40
2023-02-02T01:25:45.686Z,19.80
2023-02-02T01:27:47.086Z,23.65
2023-02-02T01:29:48.664Z,13.73
2023-02-02T01:31:55.857Z,15.57
2023-02-02T01:33:57.493Z,21.25
2023-02-02T01:36:19.000Z,11.23
2023-02-02T01:38:21.236Z,16.95
2023-02-02T01:40:28.786Z,20.17
2023-02-02T01:42:30.430Z,23.67
2023-02-02T01:44:53.269Z,15.90
2023-02-02T01:46:54.913Z,15.02
2023-02-02T01:48:59.288Z,14.75
2023-02-02T01:51:20.899Z,16.42
2023-02-02T01:53:29.473Z,13.75
2023-02-02T01:55:32.498Z,19.33
2023-02-02T01:57:39.151Z,15.27
2023-02-02T01:59:44.638Z,9.13
2023-02-02T02:01:47.657Z,13.02
2023-02-02T02:04:07.650Z,9.93
2023-02-02T02:06:11.324Z,11.40
2023-02-02T02:08:18.283Z,16.90
2023-02-02T02:10:19.855Z,14.02
2023-02-02T02:12:24.063Z,16.08
2023-02-02T02:14:47.028Z,11.35
2023-02-02T02:16:54.082Z,9.43
2023-02-02T02:19:10.538Z,14.68
2023-02-02T02:22:04.100Z,19.38
2023-02-02T02:24:30.375Z,9.68
2023-02-02T02:26:55.474Z,12.45
2023-02-02T02:31:08.141Z,7.30
2023-02-02T02:33:29.850Z,11.52
2023-02-02T02:35:31.291Z,12.02
2023-02-02T02:37:46.654Z,2.53
2023-02-02T02:39:48.220Z,11.85
2023-02-02T02:41:52.474Z,11.82
2023-02-02T02:44:01.227Z,5.90
2023-02-02T02:46:06.121Z,11.48
2023-02-02T02:48:10.431Z,13.20
2023-02-02T02:52:13.325Z,10.70
2023-02-02T02:54:17.697Z,17.40
2023-02-02T02:56:23.109Z,14.52
2023-02-02T02:58:33.688Z,11.20
2023-02-02T03:00:42.502Z,9.02
2023-02-02T03:03:29.244Z,13.30
2023-02-02T03:05:49.379Z,15.02
2023-02-02T03:07:53.996Z,15.95
2023-02-02T03:09:59.264Z,6.50
2023-02-02T03:12:00.868Z,13.27
2023-02-02T03:14:09.723Z,8.63
2023-02-02T03:16:11.469Z,7.63
2023-02-02T03:18:17.217Z,13.98
2023-02-02T03:20:18.966Z,14.27
2023-02-02T03:22:23.324Z,15.63
2023-02-02T03:24:27.862Z,11.63
2023-02-02T03:26:29.540Z,11.48
2023-02-02T03:28:50.336Z,9.75
2023-02-02T03:30:55.348Z,13.35
2023-02-02T03:33:03.047Z,16.92
2023-02-02T03:35:10.424Z,15.20
2023-02-02T03:37:14.556Z,10.63
2023-02-02T03:39:21.771Z,6.68
2023-02-02T03:41:30.357Z,12.85
2023-02-02T03:43:49.307Z,17.67
2023-02-02T03:46:08.657Z,15.23
2023-02-02T03:48:20.933Z,9.30
2023-02-02T03:50:31.555Z,10.55
2023-02-02T03:52:46.832Z,11.52
2023-02-02T03:54:59.355Z,17.33
2023-02-02T03:57:21.146Z,12.13
2023-02-02T03:59:33.115Z,9.23
2023-02-02T04:01:44.981Z,19.27
2023-02-02T04:03:55.696Z,12.43
2023-02-02T04:06:07.989Z,12.40
2023-02-02T04:08:24.257Z,16.08
2023-02-02T04:10:36.194Z,8.13
2023-02-02T04:12:49.084Z,8.43
2023-02-02T04:14:55.291Z,9.25
2023-02-02T04:16:56.882Z,13.07
2023-02-02T04:21:02.266Z,12.15
2023-02-02T04:23:06.661Z,10.55
2023-02-02T04:25:11.150Z,12.63
2023-02-02T04:27:12.642Z,11.18
2023-02-02T04:29:17.120Z,8.68
2023-02-02T04:31:18.598Z,14.52
2023-02-02T04:33:24.358Z,12.18
2023-02-02T04:35:28.606Z,11.80
2023-02-02T04:37:32.674Z,11.82
2023-02-02T04:39:40.258Z,8.18
2023-02-02T04:41:44.679Z,16.08
2023-02-02T04:43:46.277Z,12.73
2023-02-02T04:45:47.779Z,7.80
2023-02-02T04:47:52.303Z,10.38
2023-02-02T04:49:53.779Z,5.75
2023-02-02T04:51:55.349Z,11.52
2023-02-02T04:53:59.975Z,12.07
2023-02-02T04:56:08.871Z,17.63
2023-02-02T04:58:13.490Z,12.23
2023-02-02T05:00:15.365Z,10.15
2023-02-02T05:02:16.990Z,11.10
2023-02-02T05:04:18.717Z,8.32
2023-02-02T05:06:38.898Z,9.93
2023-02-02T05:08:40.402Z,11.57
2023-02-02T05:10:45.002Z,9.07
2023-02-02T05:12:49.191Z,9.02
2023-02-02T05:14:53.561Z,12.63
2023-02-02T05:16:58.000Z,11.52
2023-02-02T05:18:59.650Z,10.55
2023-02-02T05:21:01.918Z,10.75
2023-02-02T05:23:06.184Z,7.22
2023-02-02T05:25:08.140Z,24.67
2023-02-02T05:27:09.621Z,16.13
2023-02-02T05:29:11.114Z,7.60
2023-02-02T05:33:19.871Z,9.85
2023-02-02T05:35:24.414Z,7.43
2023-02-02T05:37:44.817Z,8.52
2023-02-02T05:41:52.267Z,9.88
2023-02-02T05:43:58.934Z,18.33
2023-02-02T05:46:00.578Z,12.60
2023-02-02T05:48:02.181Z,16.42
2023-02-02T05:50:03.742Z,12.40
2023-02-02T05:52:09.306Z,13.93
2023-02-02T05:54:20.427Z,11.52
2023-02-02T05:56:22.249Z,9.70
2023-02-02T05:58:23.834Z,16.27
2023-02-02T06:02:31.985Z,11.48
2023-02-02T06:04:36.240Z,15.02
2023-02-02T06:06:40.608Z,11.32
2023-02-02T06:08:42.072Z,11.52
2023-02-02T06:10:43.640Z,12.35
2023-02-02T06:12:45.165Z,12.25
2023-02-02T06:15:05.858Z,11.65
2023-02-02T06:17:07.465Z,10.77
2023-02-02T06:19:27.599Z,13.80
2023-02-02T06:21:47.590Z,14.63
2023-02-02T06:25:53.075Z,8.85
2023-02-02T06:27:58.444Z,7.47
2023-02-02T06:29:59.867Z,11.77
2023-02-02T06:32:07.151Z,10.77
2023-02-02T06:34:27.209Z,14.05
2023-02-02T06:36:31.364Z,15.63
2023-02-02T06:38:35.643Z,18.95
2023-02-02T06:42:45.051Z,16.15
2023-02-02T06:44:57.692Z,23.60
2023-02-02T06:47:13.400Z,16.02
2023-02-02T06:49:28.284Z,16.38
2023-02-02T06:51:43.285Z,11.93
2023-02-02T06:53:59.818Z,20.08
2023-02-02T06:56:14.007Z,13.20
2023-02-02T06:58:27.668Z,12.05
2023-02-02T07:00:44.549Z,12.68
2023-02-02T07:03:04.884Z,14.63
2023-02-02T07:05:27.966Z,20.42
2023-02-02T07:07:47.592Z,16.10
2023-02-02T07:10:01.973Z,15.65
2023-02-02T07:14:31.407Z,11.70
2023-02-02T07:16:47.828Z,12.73
2023-02-02T07:18:51.614Z,23.27
2023-02-02T07:20:58.583Z,14.45
2023-02-02T07:23:00.216Z,8.23
2023-02-02T07:25:01.673Z,15.18
2023-02-02T07:27:03.147Z,14.63
2023-02-02T07:29:04.967Z,11.20
2023-02-02T07:31:14.349Z,10.20
2023-02-02T07:33:15.947Z,13.87
2023-02-02T07:35:20.488Z,19.65
2023-02-02T07:37:28.053Z,16.08
2023-02-02T07:39:30.039Z,20.98
2023-02-02T07:41:31.934Z,7.15
2023-02-02T07:43:37.078Z,11.07
2023-02-02T07:45:39.690Z,17.73
2023-02-02T07:47:43.953Z,12.45
2023-02-02T07:51:49.736Z,13.00
2023-02-02T07:54:09.826Z,14.45
2023-02-02T07:56:11.569Z,13.52
2023-02-02T07:58:12.975Z,12.60
2023-02-02T08:00:14.659Z,12.55
2023-02-02T08:02:16.535Z,13.80
2023-02-02T08:04:21.019Z,15.18
2023-02-02T08:06:28.366Z,16.85
2023-02-02T08:08:32.663Z,10.25
2023-02-02T08:10:34.126Z,18.10
2023-02-02T08:14:39.863Z,17.45
2023-02-02T08:16:41.347Z,16.05
2023-02-02T08:18:43.973Z,10.82
2023-02-02T08:20:49.358Z,13.43
2023-02-02T08:22:50.930Z,6.40
2023-02-02T08:24:52.478Z,16.65
2023-02-02T08:26:57.095Z,13.25
2023-02-02T08:29:03.175Z,7.53
2023-02-02T08:31:17.779Z,9.73
2023-02-02T08:33:19.509Z,8.13
2023-02-02T08:35:43.259Z,12.98
2023-02-02T08:37:49.287Z,5.30
2023-02-02T08:40:09.890Z,10.23
2023-02-02T08:42:11.416Z,12.13
2023-02-02T08:44:14.022Z,6.97
2023-02-02T08:46:20.072Z,7.65
2023-02-02T08:48:22.053Z,6.45
2023-02-02T08:50:29.222Z,9.98
2023-02-02T08:52:30.898Z,9.98
2023-02-02T08:54:38.077Z,12.18
2023-02-02T08:56:39.937Z,14.10
2023-02-02T08:58:44.552Z,11.18
2023-02-02T09:00:45.993Z,7.85
2023-02-02T09:02:50.645Z,11.57
2023-02-02T09:04:52.126Z,10.85
2023-02-02T09:06:56.705Z,11.45
2023-02-02T09:08:58.548Z,13.75
2023-02-02T09:11:10.204Z,12.35
2023-02-02T09:13:11.700Z,15.98
2023-02-02T09:15:13.647Z,6.35
2023-02-02T09:17:15.091Z,4.70
2023-02-02T09:19:22.629Z,8.57
2023-02-02T09:21:24.785Z,14.88
2023-02-02T09:23:30.514Z,9.57
2023-02-02T09:25:32.443Z,5.53
2023-02-02T09:27:37.675Z,7.40
2023-02-02T09:29:57.868Z,12.60
2023-02-02T09:32:05.775Z,9.32
2023-02-02T09:34:11.497Z,11.25
2023-02-02T09:36:20.431Z,5.07
2023-02-02T09:38:24.863Z,10.10
2023-02-02T09:42:32.116Z,9.07
2023-02-02T09:44:33.528Z,6.07
2023-02-02T09:46:50.355Z,8.02
2023-02-02T09:49:00.207Z,6.32
2023-02-02T09:51:14.196Z,5.03
2023-02-02T09:53:55.487Z,4.03
2023-02-02T09:56:16.095Z,7.22
2023-02-02T09:58:50.200Z,6.88
2023-02-02T10:00:59.853Z,4.95
2023-02-02T10:03:38.310Z,4.60
2023-02-02T10:06:11.686Z,5.05
2023-02-02T10:08:44.135Z,2.08
2023-02-02T10:11:00.846Z,3.40
2023-02-02T10:13:31.814Z,5.82
2023-02-02T10:15:42.587Z,4.82
2023-02-02T10:17:53.402Z,3.80
2023-02-02T10:20:14.715Z,8.40
2023-02-02T10:22:29.531Z,3.28
2023-02-02T10:24:42.732Z,2.70
2023-02-02T10:26:50.830Z,7.00
2023-02-02T10:28:58.443Z,5.03
2023-02-02T10:31:11.311Z,4.85
2023-02-02T10:33:25.358Z,2.67
2023-02-02T10:36:09.083Z,6.00
2023-02-02T10:38:16.871Z,4.43
2023-02-02T10:40:21.524Z,5.28
2023-02-02T10:42:34.068Z,5.10
2023-02-02T10:44:53.019Z,6.80
2023-02-02T10:46:55.991Z,3.95
2023-02-02T10:49:19.153Z,3.80
2023-02-02T10:51:27.558Z,3.58
2023-02-02T10:53:52.841Z,3.55
2023-02-02T10:56:00.917Z,4.18
2023-02-02T10:58:11.372Z,1.95
2023-02-02T11:00:22.588Z,4.07
2023-02-02T11:02:30.557Z,7.40
2023-02-02T11:04:53.396Z,3.58
2023-02-02T11:07:20.377Z,3.45
2023-02-02T11:09:24.374Z,4.22
2023-02-02T11:11:27.135Z,4.60
2023-02-02T11:13:32.387Z,4.90
2023-02-02T11:15:34.382Z,3.95
2023-02-02T11:17:38.009Z,5.80
2023-02-02T11:19:42.453Z,3.97
2023-02-02T11:21:54.743Z,3.80
2023-02-02T11:24:00.980Z,2.40
2023-02-02T11:26:07.419Z,1.17
2023-02-02T11:28:18.890Z,4.45
2023-02-02T11:30:21.123Z,3.88
2023-02-02T11:32:27.479Z,4.90
2023-02-02T11:34:28.996Z,5.90
2023-02-02T11:36:30.625Z,2.92
2023-02-02T11:38:32.448Z,2.40
2023-02-02T11:40:38.646Z,5.57
2023-02-02T11:42:46.497Z,3.75
2023-02-02T11:44:50.085Z,3.33
2023-02-02T11:46:51.864Z,2.40
2023-02-02T11:49:10.102Z,1.80
2023-02-02T11:51:22.191Z,3.10
2023-02-02T11:53:25.595Z,2.60
2023-02-02T11:55:31.272Z,4.13
2023-02-02T11:57:35.754Z,6.60
2023-02-02T11:59:42.006Z,4.00
2023-02-02T12:01:46.940Z,2.78
2023-02-02T12:03:52.573Z,3.72
2023-02-02T12:05:57.348Z,4.15
2023-02-02T12:07:59.684Z,2.72
2023-02-02T12:10:17.847Z,3.17
2023-02-02T12:12:28.505Z,3.90
2023-02-02T12:14:41.743Z,7.88
2023-02-02T12:16:53.700Z,2.80
2023-02-02T12:19:17.122Z,2.90
2023-02-02T12:21:35.109Z,2.80
2023-02-02T12:24:14.081Z,5.55
2023-02-02T12:26:29.402Z,2.92
2023-02-02T12:28:49.756Z,2.97
2023-02-02T12:31:09.742Z,0.75
2023-02-02T12:33:21.211Z,7.03
2023-02-02T12:35:36.813Z,3.53
2023-02-02T12:37:46.712Z,3.67
2023-02-02T12:39:57.270Z,3.08
2023-02-02T12:42:10.739Z,3.58
2023-02-02T12:44:46.465Z,2.88
2023-02-02T12:47:01.628Z,6.03
2023-02-02T12:49:18.332Z,6.22
2023-02-02T12:51:41.350Z,2.45
2023-02-02T12:53:43.025Z,2.33
2023-02-02T12:55:48.949Z,3.13
2023-02-02T12:58:20.905Z,5.05
2023-02-02T13:00:38.234Z,5.85
2023-02-02T13:03:08.695Z,2.65
2023-02-02T13:05:46.601Z,2.88
2023-02-02T13:08:00.733Z,5.60
2023-02-02T13:10:13.496Z,5.05
2023-02-02T13:12:22.837Z,1.40
2023-02-02T13:14:35.910Z,4.47
2023-02-02T13:16:51.320Z,1.15
2023-02-02T13:19:03.132Z,5.90
2023-02-02T13:21:13.275Z,8.65
2023-02-02T13:23:27.496Z,7.57
2023-02-02T13:25:39.193Z,2.93
2023-02-02T13:27:46.244Z,2.50
2023-02-02T13:30:08.029Z,7.20
2023-02-02T13:32:16.433Z,5.78
2023-02-02T13:34:29.681Z,3.58
2023-02-02T13:36:36.100Z,6.60
2023-02-02T13:38:42.249Z,7.88
2023-02-02T13:40:44.114Z,8.38
2023-02-02T13:43:07.395Z,1.48
2023-02-02T13:45:17.749Z,5.65
2023-02-02T13:47:41.670Z,5.78
2023-02-02T13:49:46.397Z,7.25
2023-02-02T13:51:54.855Z,5.75
2023-02-02T13:54:18.077Z,6.15
2023-02-02T13:56:32.028Z,6.18
2023-02-02T13:58:55.334Z,4.90
2023-02-02T14:01:16.301Z,7.43
2023-02-02T14:03:23.722Z,3.13
2023-02-02T14:05:27.594Z,4.35
2023-02-02T14:07:44.083Z,3.08
2023-02-02T14:09:48.509Z,3.72
2023-02-02T14:12:10.540Z,6.22
2023-02-02T14:14:35.443Z,5.93
2023-02-02T14:18:59.569Z,3.70
2023-02-02T14:21:01.175Z,5.53
2023-02-02T14:23:02.692Z,3.50
2023-02-02T14:25:24.432Z,4.03
2023-02-02T14:27:29.226Z,8.25
2023-02-02T14:29:33.551Z,3.30
2023-02-02T14:31:43.281Z,1.98
2023-02-02T14:33:48.673Z,2.95
2023-02-02T14:35:55.863Z,1.38
2023-02-02T14:38:04.316Z,2.22
2023-02-02T14:40:08.772Z,4.05
2023-02-02T14:42:48.910Z,3.60
2023-02-02T14:45:09.225Z,7.55
2023-02-02T14:47:35.224Z,5.88
2023-02-02T14:49:39.800Z,4.95
2023-02-02T14:51:52.196Z,4.05
2023-02-02T14:53:55.070Z,2.67
2023-02-02T14:56:20.118Z,5.82
2023-02-02T14:58:30.580Z,9.45
2023-02-02T15:00:35.516Z,4.50
2023-02-02T15:02:38.300Z,3.85
2023-02-02T15:05:18.514Z,8.98
2023-02-02T15:07:23.142Z,2.80
2023-02-02T15:09:27.970Z,4.00
2023-02-02T15:11:29.722Z,5.45
2023-02-02T15:13:37.657Z,3.30
2023-02-02T15:15:43.729Z,4.13
2023-02-02T15:17:50.119Z,4.90
2023-02-02T15:20:30.659Z,5.15
2023-02-02T15:22:35.122Z,3.17
2023-02-02T15:24:56.948Z,11.35
2023-02-02T15:27:05.321Z,4.20
2023-02-02T15:29:07.907Z,10.70
2023-02-02T15:31:20.477Z,4.60
2023-02-02T15:33:36.646Z,5.25
2023-02-02T15:35:38.377Z,2.92
2023-02-02T15:37:41.829Z,3.30
2023-02-02T15:40:03.353Z,6.93
2023-02-02T15:42:37.474Z,6.10
2023-02-02T15:44:45.631Z,10.38
2023-02-02T15:46:48.216Z,6.53
2023-02-02T15:49:36.080Z,4.30
2023-02-02T15:51:45.563Z,6.40
2023-02-02T15:53:49.093Z,12.37
2023-02-02T15:56:29.327Z,20.65
2023-02-02T15:58:33.821Z,9.00
2023-02-02T16:00:39.423Z,5.75
2023-02-02T16:02:46.150Z,2.55
2023-02-02T16:04:50.798Z,11.13
2023-02-02T16:07:31.320Z,14.13
2023-02-02T16:09:37.041Z,5.95
2023-02-02T16:11:42.377Z,22.15
2023-02-02T16:14:07.093Z,7.30
2023-02-02T16:16:25.354Z,7.72
2023-02-02T16:18:34.173Z,5.30
2023-02-02T16:20:37.612Z,13.63
2023-02-02T16:22:40.768Z,5.32
2023-02-02T16:25:02.672Z,7.80
2023-02-02T16:27:12.365Z,6.75
2023-02-02T16:29:18.616Z,7.10
2023-02-02T16:31:20.569Z,7.05
2023-02-02T16:33:26.986Z,9.40
2023-02-02T16:35:47.160Z,12.10
2023-02-02T16:37:51.667Z,9.05
2023-02-02T16:39:54.032Z,4.90
2023-02-02T16:42:08.709Z,7.97
2023-02-02T16:44:28.765Z,6.72
2023-02-02T16:46:41.175Z,8.45
2023-02-02T16:49:06.112Z,5.78
2023-02-02T16:51:27.744Z,8.90
2023-02-02T16:53:32.192Z,7.28
2023-02-02T16:55:49.143Z,7.15
2023-02-02T16:58:04.941Z,5.82
2023-02-02T17:00:07.766Z,15.32
2023-02-02T17:02:21.093Z,7.30
2023-02-02T17:04:25.022Z,10.70
2023-02-02T17:06:38.755Z,5.50
2023-02-02T17:08:51.191Z,2.85
2023-02-02T17:11:02.766Z,9.52
2023-02-02T17:13:28.940Z,5.65
2023-02-02T17:15:34.536Z,4.20
2023-02-02T17:17:39.591Z,4.13
2023-02-02T17:19:41.768Z,7.28
2023-02-02T17:21:43.359Z,7.05
2023-02-02T17:23:51.402Z,7.32
2023-02-02T17:25:53.449Z,5.55
2023-02-02T17:28:21.299Z,6.07
2023-02-02T17:30:23.103Z,7.75
2023-02-02T17:32:29.687Z,4.70
2023-02-02T17:34:37.103Z,3.53
2023-02-02T17:36:39.095Z,9.65
2023-02-02T17:38:40.836Z,6.82
2023-02-02T17:40:42.435Z,5.97
2023-02-02T17:44:50.591Z,2.97
2023-02-02T17:46:52.000Z,5.72
2023-02-02T17:48:59.303Z,5.45
2023-02-02T17:51:06.643Z,2.10
2023-02-02T17:53:12.211Z,2.25
2023-02-02T17:55:20.313Z,2.53
2023-02-02T17:57:24.702Z,2.88
2023-02-02T17:59:26.316Z,5.40
2023-02-02T18:01:27.913Z,5.93
2023-02-02T18:03:34.298Z,5.15
2023-02-02T18:05:41.254Z,11.45
2023-02-02T18:07:44.579Z,6.63
2023-02-02T18:09:45.993Z,2.00
2023-02-02T18:12:06.408Z,3.20
2023-02-02T18:14:07.899Z,3.45
2023-02-02T18:16:15.610Z,5.18
2023-02-02T18:18:20.073Z,7.82
2023-02-02T18:20:24.532Z,4.15
2023-02-02T18:22:26.048Z,5.63
2023-02-02T18:24:30.674Z,7.00
2023-02-02T18:26:34.500Z,8.30
2023-02-02T18:28:42.012Z,14.98
2023-02-02T18:30:47.214Z,3.65
2023-02-02T18:32:50.149Z,5.82
2023-02-02T18:34:55.409Z,5.20
2023-02-02T18:37:00.192Z,7.65
2023-02-02T18:39:04.322Z,4.03
2023-02-02T18:41:06.154Z,8.48
2023-02-02T18:43:07.756Z,7.35
2023-02-02T18:45:12.172Z,5.20
2023-02-02T18:47:32.168Z,5.43
2023-02-02T18:49:36.291Z,1.15
2023-02-02T18:51:56.537Z,4.35
2023-02-02T18:54:00.477Z,4.93
2023-02-02T18:56:05.850Z,3.42
2023-02-02T18:58:10.608Z,0.68
2023-02-02T19:00:15.833Z,3.67
2023-02-02T19:02:20.124Z,2.08
2023-02-02T19:04:21.727Z,0.88
2023-02-02T19:06:43.905Z,3.70
2023-02-02T19:08:50.452Z,3.13
2023-02-02T19:11:03.060Z,1.33
2023-02-02T19:13:13.936Z,2.35
2023-02-02T19:15:15.589Z,1.80
2023-02-02T19:17:21.141Z,2.88
2023-02-02T19:19:27.632Z,2.75
2023-02-02T19:21:30.012Z,4.07
2023-02-02T19:23:33.216Z,1.73
2023-02-02T19:25:54.950Z,4.40
2023-02-02T19:27:57.603Z,2.47
2023-02-02T19:30:03.893Z,2.13
2023-02-02T19:32:28.009Z,2.13
2023-02-02T19:34:49.246Z,4.00
2023-02-02T19:36:53.689Z,8.30
2023-02-02T19:39:25.688Z,3.58
2023-02-02T19:41:30.399Z,3.85
2023-02-02T19:43:33.164Z,5.93
2023-02-02T19:45:40.501Z,2.70
2023-02-02T19:47:48.129Z,2.38
2023-02-02T19:49:49.779Z,1.35
2023-02-02T19:51:54.123Z,4.55
2023-02-02T19:54:00.791Z,6.68
2023-02-02T19:56:02.467Z,0.85
2023-02-02T19:58:13.521Z,2.42
2023-02-02T20:00:20.604Z,0.75
2023-02-02T20:02:38.533Z,1.10
2023-02-02T20:04:40.244Z,2.92
2023-02-02T20:06:56.607Z,2.42
2023-02-02T20:09:11.024Z,5.80
2023-02-02T20:11:41.655Z,3.58
2023-02-02T20:13:45.556Z,1.27
2023-02-02T20:15:50.958Z,1.42
2023-02-02T20:17:54.323Z,1.40
2023-02-02T20:19:56.133Z,2.35
2023-02-02T20:21:57.738Z,1.63
2023-02-02T20:24:02.790Z,4.80
2023-02-02T20:26:20.129Z,1.85
2023-02-02T20:28:44.730Z,3.08
2023-02-02T20:30:49.045Z,2.95
2023-02-02T20:32:52.904Z,1.58
2023-02-02T20:35:00.283Z,0.50
2023-02-02T20:37:05.539Z,1.42
2023-02-02T20:39:19.841Z,4.15
2023-02-02T20:41:24.531Z,7.85
2023-02-02T20:43:29.093Z,3.10
2023-02-02T20:45:30.559Z,3.92
2023-02-02T20:47:32.767Z,2.28
2023-02-02T20:49:40.044Z,2.50
2023-02-02T20:51:41.745Z,2.58
2023-02-02T20:53:44.266Z,2.42
2023-02-02T20:55:48.666Z,3.50
2023-02-02T20:58:09.995Z,4.03
2023-02-02T21:00:13.063Z,3.78
2023-02-02T21:02:33.346Z,3.35
2023-02-02T21:04:34.929Z,4.75
2023-02-02T21:06:40.351Z,2.40
2023-02-02T21:08:41.833Z,2.95
2023-02-02T21:10:43.280Z,4.38
2023-02-02T21:12:46.812Z,4.25
2023-02-02T21:14:54.301Z,1.65
2023-02-02T21:17:13.684Z,4.97
2023-02-02T21:19:19.159Z,5.80
2023-02-02T21:21:39.213Z,3.85
2023-02-02T21:23:47.383Z,3.67
2023-02-02T21:25:48.826Z,3.20
2023-02-02T21:28:08.797Z,0.77
2023-02-02T21:30:11.375Z,3.47
2023-02-02T21:32:15.906Z,4.90
2023-02-02T21:34:17.957Z,3.70
2023-02-02T21:36:28.680Z,2.10
2023-02-02T21:38:30.544Z,3.78
2023-02-02T21:40:34.475Z,4.28
2023-02-02T21:42:38.623Z,4.78
2023-02-02T21:44:49.763Z,3.25
2023-02-02T21:46:54.104Z,3.90
2023-02-02T21:48:55.703Z,2.53
2023-02-02T21:51:06.783Z,7.13
2023-02-02T21:53:13.896Z,3.92
2023-02-02T21:55:21.159Z,2.10
2023-02-02T21:57:34.702Z,1.45
2023-02-02T21:59:39.120Z,1.65
2023-02-02T22:01:59.085Z,5.35
2023-02-02T22:04:03.466Z,2.40
2023-02-02T22:06:07.824Z,2.53
2023-02-02T22:08:22.724Z,3.17
2023-02-02T22:10:39.433Z,1.85
2023-02-02T22:12:45.767Z,1.35
2023-02-02T22:14:50.139Z,3.92
2023-02-02T22:16:58.537Z,2.95
2023-02-02T22:19:15.092Z,5.45
2023-02-02T22:21:18.829Z,4.88
2023-02-02T22:23:23.604Z,4.28
2023-02-02T22:25:37.398Z,2.15
2023-02-02T22:27:58.058Z,5.43
2023-02-02T22:30:03.084Z,2.22
2023-02-02T22:32:04.818Z,7.97
2023-02-02T22:34:25.103Z,3.65
2023-02-02T22:36:29.557Z,3.85
2023-02-02T22:38:31.445Z,3.47
2023-02-02T22:40:36.556Z,4.20
2023-02-02T22:42:41.096Z,1.88
2023-02-02T22:44:44.251Z,9.30
2023-02-02T22:47:04.551Z,2.28
2023-02-02T22:49:09.166Z,2.53
2023-02-02T22:51:16.352Z,2.78
2023-02-02T22:53:17.885Z,6.18
2023-02-02T22:55:19.931Z,4.57
2023-02-02T22:57:25.514Z,2.90
2023-02-02T22:59:32.822Z,2.58
2023-02-02T23:01:34.369Z,2.55
2023-02-02T23:03:54.664Z,3.13
2023-02-02T23:05:56.253Z,3.70
2023-02-02T23:07:57.691Z,3.75
2023-02-02T23:10:02.137Z,4.13
2023-02-02T23:12:06.628Z,0.88
2023-02-02T23:14:08.169Z,4.32
2023-02-02T23:16:12.745Z,2.55
2023-02-02T23:18:17.270Z,3.83
2023-02-02T23:20:18.908Z,1.90
2023-02-02T23:22:20.502Z,1.30
2023-02-02T23:24:24.958Z,3.08
2023-02-02T23:26:26.441Z,2.08
2023-02-02T23:28:33.681Z,2.90
2023-02-02T23:30:35.209Z,2.92
2023-02-02T23:32:37.025Z,2.88
2023-02-02T23:34:38.547Z,5.00
2023-02-02T23:36:46.213Z,5.20
2023-02-02T23:38:47.954Z,2.92
2023-02-02T23:40:52.513Z,2.75
2023-02-02T23:43:00.032Z,5.03
2023-02-02T23:45:04.960Z,1.77
2023-02-02T23:47:06.525Z,3.45
2023-02-02T23:49:11.263Z,2.38
2023-02-02T23:51:18.621Z,5.30
2023-02-02T23:55:24.406Z,3.67
2023-02-02T23:59:32.596Z,2.33
